Time;durP1;ratioP1;P1;durP2;ratioP2;P2;SDS_P1;SDS_P2;PMS_P1;PMS_P2;Temp;Humidity;BMP_temperature;BMP_pressure;BME280_temperature;BME280_humidity;BME280_pressure;Samples;Min_cycle;Max_cycle;Signal;HPM_P1;HPM_P2
2022/02/02 00:00:19;;;;;;;;;;;21.50;39.80;;;;;;689978;28;1111;-78
2022/02/02 00:00:40;;;;;;;;;;;21.50;39.90;;;;;;690577;28;863;-78
2022/02/02 00:01:02;;;;;;;;;;;21.50;39.80;;;;;;690467;28;859;-78
2022/02/02 00:01:43;;;;;;;;;;;21.50;39.80;;;;;;690385;28;1318;-78
2022/02/02 00:02:19;;;;;;;;;;;21.50;39.80;;;;;;693256;28;922;-76
2022/02/02 00:02:47;;;;;;;;;;;21.50;39.80;;;;;;693429;28;893;-78
2022/02/02 00:03:10;;;;;;;;;;;21.60;41.00;;;;;;690198;28;1048;-79
2022/02/02 00:03:30;;;;;;;;;;;21.60;39.90;;;;;;690443;28;894;-77
2022/02/02 00:03:54;;;;;;;;;;;21.60;39.80;;;;;;690381;28;1318;-77
2022/02/02 00:04:19;;;;;;;;;;;21.60;39.90;;;;;;690494;28;838;-78
2022/02/02 00:04:46;;;;;;;;;;;21.60;39.80;;;;;;690639;28;815;-78
2022/02/02 00:06:13;;;;;;;;;;;21.60;39.80;;;;;;693365;28;850;-78
2022/02/02 00:06:42;;;;;;;;;;;21.60;39.80;;;;;;693334;28;802;-78
2022/02/02 00:07:33;;;;;;;;;;;21.70;39.70;;;;;;693315;28;850;-79
2022/02/02 00:09:17;;;;;;;;;;;21.70;39.60;;;;;;693274;28;632;-76
2022/02/02 00:09:40;;;;;;;;;;;21.70;39.60;;;;;;693301;28;877;-78
2022/02/02 00:10:14;;;;;;;;;;;21.70;39.60;;;;;;693227;28;813;-78
2022/02/02 00:11:08;;;;;;;;;;;21.70;39.60;;;;;;690490;28;826;-79
2022/02/02 00:12:41;;;;;;;;;;;21.70;39.60;;;;;;691437;28;818;-78
2022/02/02 00:13:09;;;;;;;;;;;21.70;39.60;;;;;;690481;28;885;-77
2022/02/02 00:13:59;;;;;;;;;;;21.70;39.50;;;;;;693166;28;838;-78
2022/02/02 00:14:30;;;;;;;;;;;21.70;39.50;;;;;;693201;28;834;-77
2022/02/02 00:15:04;;;;;;;;;;;21.70;39.50;;;;;;693147;28;823;-77
2022/02/02 00:17:55;;;;;;;;;;;21.80;39.50;;;;;;690622;28;740;-78
2022/02/02 00:17:56;;;;;;;;;;;21.80;39.50;;;;;;690359;28;1462;-78
2022/02/02 00:19:00;;;;;;;;;;;21.80;39.50;;;;;;693218;28;662;-77
2022/02/02 00:20:59;;;;;;;;;;;21.80;39.50;;;;;;698783;28;596;-78
2022/02/02 00:21:42;;;;;;;;;;;21.80;39.50;;;;;;698703;28;837;-79
2022/02/02 00:22:32;;;;;;;;;;;21.80;39.50;;;;;;695876;28;1409;-79
2022/02/02 00:22:48;;;;;;;;;;;21.80;39.40;;;;;;695546;28;1480;-78
2022/02/02 00:23:16;;;;;;;;;;;21.80;39.50;;;;;;694751;28;1295;-79
2022/02/02 00:23:42;;;;;;;;;;;21.80;39.50;;;;;;693931;28;929;-77
2022/02/02 00:24:08;;;;;;;;;;;21.80;39.40;;;;;;694190;28;937;-78
2022/02/02 00:25:46;;;;;;;;;;;21.80;39.50;;;;;;697177;28;1400;-77
2022/02/02 00:26:12;;;;;;;;;;;21.80;39.40;;;;;;693976;28;1362;-77
2022/02/02 00:26:38;;;;;;;;;;;21.80;39.40;;;;;;696994;28;830;-78
2022/02/02 00:27:03;;;;;;;;;;;21.80;39.50;;;;;;694257;28;1215;-78
2022/02/02 00:27:25;;;;;;;;;;;21.80;39.40;;;;;;694005;28;712;-78
2022/02/02 00:27:50;;;;;;;;;;;21.80;39.40;;;;;;694073;28;884;-78
2022/02/02 00:28:11;;;;;;;;;;;21.70;39.30;;;;;;696414;28;1532;-78
2022/02/02 00:28:36;;;;;;;;;;;21.70;39.40;;;;;;696844;28;794;-79
2022/02/02 00:29:04;;;;;;;;;;;21.70;39.40;;;;;;699106;28;849;-76
2022/02/02 00:29:32;;;;;;;;;;;21.70;39.50;;;;;;699464;28;862;-77
2022/02/02 00:29:58;;;;;;;;;;;21.70;39.50;;;;;;699581;28;885;-78
2022/02/02 00:30:22;;;;;;;;;;;21.70;39.60;;;;;;699312;28;1514;-78
2022/02/02 00:30:42;;;;;;;;;;;21.70;39.50;;;;;;696241;28;1313;-78
2022/02/02 00:31:07;;;;;;;;;;;21.70;39.60;;;;;;699554;28;1401;-76
2022/02/02 00:31:35;;;;;;;;;;;21.70;39.60;;;;;;699564;28;857;-78
2022/02/02 00:32:04;;;;;;;;;;;21.70;39.60;;;;;;699559;28;845;-78
2022/02/02 00:33:07;;;;;;;;;;;21.60;39.50;;;;;;702438;28;723;-78
2022/02/02 00:33:32;;;;;;;;;;;21.60;39.50;;;;;;702374;28;545;-76
2022/02/02 00:34:03;;;;;;;;;;;21.60;39.50;;;;;;702192;28;866;-77
2022/02/02 00:34:27;;;;;;;;;;;21.60;39.50;;;;;;702303;28;865;-78
2022/02/02 00:34:48;;;;;;;;;;;21.60;39.60;;;;;;702422;28;885;-78
2022/02/02 00:35:10;;;;;;;;;;;21.60;39.60;;;;;;702388;28;860;-78
2022/02/02 00:35:39;;;;;;;;;;;21.60;39.60;;;;;;699400;28;850;-77
2022/02/02 00:36:06;;;;;;;;;;;21.60;39.60;;;;;;696668;28;924;-78
2022/02/02 00:36:34;;;;;;;;;;;21.60;39.60;;;;;;696698;28;1324;-77
2022/02/02 00:36:57;;;;;;;;;;;21.60;39.70;;;;;;693741;28;1494;-76
2022/02/02 00:37:19;;;;;;;;;;;21.60;40.90;;;;;;694967;28;889;-76
2022/02/02 00:37:39;;;;;;;;;;;21.60;39.80;;;;;;696863;28;881;-78
2022/02/02 00:38:00;;;;;;;;;;;21.60;39.80;;;;;;699297;28;1017;-76
2022/02/02 00:38:20;;;;;;;;;;;21.60;39.80;;;;;;696573;28;1324;-76
2022/02/02 00:38:41;;;;;;;;;;;21.60;39.80;;;;;;697612;28;944;-78
2022/02/02 00:39:02;;;;;;;;;;;21.60;39.80;;;;;;693812;28;1711;-79
2022/02/02 00:39:27;;;;;;;;;;;21.60;39.90;;;;;;691990;28;1645;-79
2022/02/02 00:39:48;;;;;;;;;;;21.60;39.90;;;;;;691625;28;1647;-76
2022/02/02 00:40:09;;;;;;;;;;;21.60;39.90;;;;;;692231;28;972;-77
2022/02/02 00:40:30;;;;;;;;;;;21.60;39.90;;;;;;691135;28;1836;-74
2022/02/02 00:40:50;;;;;;;;;;;21.60;40.00;;;;;;691228;28;945;-77
2022/02/02 00:41:11;;;;;;;;;;;21.60;40.00;;;;;;691449;28;931;-75
2022/02/02 00:41:32;;;;;;;;;;;21.60;39.90;;;;;;691087;28;1149;-77
2022/02/02 00:41:56;;;;;;;;;;;21.50;40.00;;;;;;693201;28;1537;-76
2022/02/02 00:42:16;;;;;;;;;;;21.60;40.00;;;;;;694734;28;802;-77
2022/02/02 00:42:37;;;;;;;;;;;21.50;40.00;;;;;;696880;28;727;-76
2022/02/02 00:42:57;;;;;;;;;;;21.60;39.90;;;;;;693972;28;1219;-78
2022/02/02 00:43:18;;;;;;;;;;;21.50;39.90;;;;;;694054;28;838;-76
2022/02/02 00:43:41;;;;;;;;;;;21.60;39.90;;;;;;694705;28;1404;-77
2022/02/02 00:44:03;;;;;;;;;;;21.50;40.00;;;;;;696627;28;1328;-77
2022/02/02 00:44:24;;;;;;;;;;;21.50;40.00;;;;;;696668;28;1358;-77
2022/02/02 00:44:49;;;;;;;;;;;21.50;40.00;;;;;;696745;28;893;-75
2022/02/02 00:45:09;;;;;;;;;;;21.50;40.10;;;;;;696762;28;1407;-77
2022/02/02 00:45:33;;;;;;;;;;;21.50;40.10;;;;;;698197;28;1419;-77
2022/02/02 00:45:54;;;;;;;;;;;21.50;40.10;;;;;;694388;28;1580;-76
2022/02/02 00:46:15;;;;;;;;;;;21.50;40.20;;;;;;693890;28;1310;-78
2022/02/02 00:46:35;;;;;;;;;;;21.50;40.10;;;;;;694192;28;849;-75
2022/02/02 00:46:56;;;;;;;;;;;21.50;40.10;;;;;;694003;28;874;-77
2022/02/02 00:47:22;;;;;;;;;;;21.50;40.10;;;;;;693981;28;839;-78
2022/02/02 00:47:47;;;;;;;;;;;21.50;40.10;;;;;;695163;28;834;-77
2022/02/02 00:48:09;;;;;;;;;;;21.50;40.10;;;;;;696305;28;1390;-77
2022/02/02 00:48:32;;;;;;;;;;;21.50;40.10;;;;;;696711;28;805;-76
2022/02/02 00:48:59;;;;;;;;;;;21.50;40.10;;;;;;693968;28;1354;-77
2022/02/02 00:49:20;;;;;;;;;;;21.50;40.20;;;;;;693995;28;893;-75
2022/02/02 00:49:43;;;;;;;;;;;21.50;40.20;;;;;;694109;28;818;-77
2022/02/02 00:50:05;;;;;;;;;;;21.50;40.20;;;;;;691546;28;1327;-75
2022/02/02 00:50:27;;;;;;;;;;;21.50;40.20;;;;;;690775;28;1341;-76
2022/02/02 00:50:47;;;;;;;;;;;21.50;40.10;;;;;;695798;28;1114;-76
2022/02/02 00:51:08;;;;;;;;;;;21.50;40.20;;;;;;696834;28;886;-75
2022/02/02 00:51:46;;;;;;;;;;;21.50;40.20;;;;;;696743;28;837;-76
2022/02/02 00:52:07;;;;;;;;;;;21.50;40.20;;;;;;691324;28;1342;-74
2022/02/02 00:52:27;;;;;;;;;;;21.50;40.20;;;;;;693902;28;1076;-76
2022/02/02 00:52:51;;;;;;;;;;;21.40;40.30;;;;;;691350;28;1577;-76
2022/02/02 00:53:12;;;;;;;;;;;21.40;40.30;;;;;;692823;28;1160;-76
2022/02/02 00:53:32;;;;;;;;;;;21.50;40.30;;;;;;696379;28;869;-75
2022/02/02 00:53:53;;;;;;;;;;;21.50;40.40;;;;;;697439;28;846;-75
2022/02/02 00:54:15;;;;;;;;;;;21.40;40.20;;;;;;699478;28;932;-77
2022/02/02 00:54:36;;;;;;;;;;;21.40;40.30;;;;;;700620;28;962;-77
2022/02/02 00:54:56;;;;;;;;;;;21.40;40.30;;;;;;702333;28;881;-78
2022/02/02 00:55:21;;;;;;;;;;;21.50;40.30;;;;;;699043;28;902;-77
2022/02/02 00:55:41;;;;;;;;;;;21.40;40.20;;;;;;699589;28;806;-77
2022/02/02 00:56:02;;;;;;;;;;;21.40;40.30;;;;;;699105;28;1535;-76
2022/02/02 00:56:22;;;;;;;;;;;21.40;40.30;;;;;;699453;28;829;-77
2022/02/02 00:56:43;;;;;;;;;;;21.40;40.30;;;;;;699433;28;1325;-76
2022/02/02 00:57:03;;;;;;;;;;;21.40;40.30;;;;;;700307;28;1325;-75
2022/02/02 00:57:27;;;;;;;;;;;21.40;40.30;;;;;;702338;28;869;-75
2022/02/02 00:57:48;;;;;;;;;;;21.40;40.40;;;;;;699228;28;1503;-76
2022/02/02 00:58:09;;;;;;;;;;;21.40;40.30;;;;;;695199;28;1432;-75
2022/02/02 00:58:29;;;;;;;;;;;21.40;40.30;;;;;;694533;28;1372;-75
2022/02/02 00:58:50;;;;;;;;;;;21.40;40.30;;;;;;695592;28;1359;-74
2022/02/02 00:59:10;;;;;;;;;;;21.40;40.30;;;;;;696939;28;814;-75
2022/02/02 00:59:31;;;;;;;;;;;21.40;40.40;;;;;;697040;28;868;-78
2022/02/02 00:59:51;;;;;;;;;;;21.40;40.40;;;;;;699802;28;921;-78
2022/02/02 01:00:13;;;;;;;;;;;21.40;40.40;;;;;;702749;28;754;-77
2022/02/02 01:00:34;;;;;;;;;;;21.40;40.40;;;;;;705307;28;845;-78
2022/02/02 01:00:54;;;;;;;;;;;21.40;40.40;;;;;;705422;28;816;-78
2022/02/02 01:01:15;;;;;;;;;;;21.40;40.40;;;;;;705457;28;782;-79
2022/02/02 01:01:35;;;;;;;;;;;21.40;40.40;;;;;;705406;28;913;-77
2022/02/02 01:01:56;;;;;;;;;;;21.40;40.40;;;;;;705463;28;790;-78
2022/02/02 01:02:17;;;;;;;;;;;21.40;40.50;;;;;;705404;28;816;-78
2022/02/02 01:02:37;;;;;;;;;;;21.40;40.60;;;;;;705600;28;884;-78
2022/02/02 01:02:58;;;;;;;;;;;21.40;40.50;;;;;;705305;28;986;-78
2022/02/02 01:03:18;;;;;;;;;;;21.40;40.50;;;;;;704956;28;912;-78
2022/02/02 01:03:39;;;;;;;;;;;21.40;40.50;;;;;;705346;28;875;-78
2022/02/02 01:03:59;;;;;;;;;;;21.40;40.50;;;;;;705236;28;923;-76
2022/02/02 01:04:20;;;;;;;;;;;21.40;40.50;;;;;;705078;28;805;-77
2022/02/02 01:04:41;;;;;;;;;;;21.40;40.50;;;;;;705274;28;840;-76
2022/02/02 01:05:01;;;;;;;;;;;21.40;40.60;;;;;;705154;28;852;-78
2022/02/02 01:05:22;;;;;;;;;;;21.40;40.60;;;;;;705017;28;1233;-77
2022/02/02 01:05:42;;;;;;;;;;;21.40;40.80;;;;;;705077;28;1272;-77
2022/02/02 01:06:03;;;;;;;;;;;21.40;40.70;;;;;;705234;28;959;-77
2022/02/02 01:06:27;;;;;;;;;;;21.40;40.60;;;;;;705072;28;920;-78
2022/02/02 01:07:01;;;;;;;;;;;21.40;40.60;;;;;;705296;28;829;-78
2022/02/02 01:07:37;;;;;;;;;;;21.40;40.60;;;;;;705089;28;868;-76
2022/02/02 01:08:42;;;;;;;;;;;21.40;40.60;;;;;;705437;28;800;-77
2022/02/02 01:09:47;;;;;;;;;;;21.40;40.70;;;;;;705393;28;714;-76
2022/02/02 01:10:21;;;;;;;;;;;21.40;40.70;;;;;;705454;28;864;-76
2022/02/02 01:10:53;;;;;;;;;;;21.40;40.60;;;;;;705520;28;836;-74
2022/02/02 01:17:08;;;;;;;;;;;21.40;40.80;;;;;;705520;28;816;-78
2022/02/02 01:18:58;;;;;;;;;;;21.30;40.80;;;;;;705404;28;647;-77
2022/02/02 01:20:00;;;;;;;;;;;21.30;41.90;;;;;;705312;28;718;-75
2022/02/02 01:21:27;;;;;;;;;;;21.40;40.80;;;;;;705493;28;695;-77
2022/02/02 01:22:19;;;;;;;;;;;21.30;40.80;;;;;;705136;28;836;-78
2022/02/02 01:27:50;;;;;;;;;;;21.30;40.90;;;;;;699856;28;608;-76
2022/02/02 01:28:11;;;;;;;;;;;21.30;40.90;;;;;;699872;28;801;-78
2022/02/02 01:28:32;;;;;;;;;;;21.30;40.90;;;;;;698964;28;1206;-77
2022/02/02 01:28:53;;;;;;;;;;;21.30;40.80;;;;;;697041;28;1532;-78
2022/02/02 01:29:13;;;;;;;;;;;21.30;40.80;;;;;;697368;28;1229;-78
2022/02/02 01:29:34;;;;;;;;;;;21.30;40.90;;;;;;696913;28;928;-77
2022/02/02 01:29:54;;;;;;;;;;;21.30;40.90;;;;;;696822;28;779;-78
2022/02/02 01:30:16;;;;;;;;;;;21.30;40.90;;;;;;697082;28;810;-79
2022/02/02 01:30:37;;;;;;;;;;;21.30;40.90;;;;;;700095;28;900;-77
2022/02/02 01:30:59;;;;;;;;;;;21.30;40.90;;;;;;701929;28;774;-78
2022/02/02 01:31:20;;;;;;;;;;;21.30;40.80;;;;;;699594;28;1341;-76
2022/02/02 01:31:41;;;;;;;;;;;21.30;40.90;;;;;;699317;28;1913;-78
2022/02/02 01:32:01;;;;;;;;;;;21.30;40.90;;;;;;699538;28;897;-78
2022/02/02 01:32:22;;;;;;;;;;;21.30;40.90;;;;;;699479;28;956;-78
2022/02/02 01:32:42;;;;;;;;;;;21.30;40.90;;;;;;699403;28;905;-75
2022/02/02 01:33:03;;;;;;;;;;;21.30;40.90;;;;;;699481;28;1428;-78
2022/02/02 01:33:24;;;;;;;;;;;21.30;40.90;;;;;;699555;28;798;-77
2022/02/02 01:33:47;;;;;;;;;;;21.30;40.90;;;;;;699707;28;849;-78
2022/02/02 01:34:07;;;;;;;;;;;21.30;40.90;;;;;;699704;28;888;-79
2022/02/02 01:34:28;;;;;;;;;;;21.30;40.80;;;;;;700805;28;1128;-77
2022/02/02 01:34:49;;;;;;;;;;;21.30;40.90;;;;;;702257;28;837;-77
2022/02/02 01:35:17;;;;;;;;;;;21.30;40.90;;;;;;702098;28;1349;-78
2022/02/02 01:35:37;;;;;;;;;;;21.30;40.90;;;;;;702226;28;1130;-79
2022/02/02 01:35:58;;;;;;;;;;;21.30;40.90;;;;;;699809;28;901;-77
2022/02/02 01:36:19;;;;;;;;;;;21.30;40.90;;;;;;703706;28;1222;-79
2022/02/02 01:36:40;;;;;;;;;;;21.30;40.80;;;;;;702972;28;1473;-77
2022/02/02 01:37:01;;;;;;;;;;;21.30;40.90;;;;;;703094;28;872;-78
2022/02/02 01:37:22;;;;;;;;;;;21.30;41.00;;;;;;703261;28;912;-76
2022/02/02 01:37:43;;;;;;;;;;;21.30;40.90;;;;;;703381;28;762;-76
2022/02/02 01:38:04;;;;;;;;;;;21.30;41.00;;;;;;703046;28;1206;-77
2022/02/02 01:38:28;;;;;;;;;;;21.30;41.00;;;;;;703247;28;1498;-80
2022/02/02 01:38:51;;;;;;;;;;;21.30;40.90;;;;;;702761;28;1623;-80
2022/02/02 01:39:14;;;;;;;;;;;21.30;40.90;;;;;;701753;28;1570;-78
2022/02/02 01:39:35;;;;;;;;;;;21.30;42.00;;;;;;701643;28;1594;-79
2022/02/02 01:40:01;;;;;;;;;;;21.30;41.10;;;;;;700572;28;1598;-80
2022/02/02 01:40:30;;;;;;;;;;;21.30;40.90;;;;;;701579;28;1586;-80
2022/02/02 01:40:56;;;;;;;;;;;21.30;41.00;;;;;;701041;28;1524;-77
2022/02/02 01:41:23;;;;;;;;;;;21.30;40.90;;;;;;700274;28;1498;-77
2022/02/02 01:41:45;;;;;;;;;;;21.30;40.90;;;;;;699746;28;1666;-79
2022/02/02 01:42:10;;;;;;;;;;;21.30;40.90;;;;;;699958;28;1190;-81
2022/02/02 01:42:39;;;;;;;;;;;21.30;41.00;;;;;;700404;28;1607;-79
2022/02/02 01:43:05;;;;;;;;;;;21.30;41.00;;;;;;699747;28;885;-80
2022/02/02 01:43:39;;;;;;;;;;;21.30;40.90;;;;;;699630;28;861;-80
2022/02/02 01:44:12;;;;;;;;;;;21.30;41.00;;;;;;700779;28;1647;-79
2022/02/02 01:44:47;;;;;;;;;;;21.30;41.20;;;;;;699931;28;894;-78
2022/02/02 01:45:21;;;;;;;;;;;21.30;41.30;;;;;;699799;28;904;-79
2022/02/02 01:46:07;;;;;;;;;;;21.30;41.20;;;;;;700216;28;1587;-80
2022/02/02 01:46:31;;;;;;;;;;;21.30;41.20;;;;;;702687;28;888;-80
2022/02/02 01:46:53;;;;;;;;;;;21.30;41.20;;;;;;702577;28;884;-78
2022/02/02 01:47:14;;;;;;;;;;;21.30;41.10;;;;;;699866;28;1645;-79
2022/02/02 01:47:44;;;;;;;;;;;21.30;41.00;;;;;;699693;28;771;-78
2022/02/02 01:48:38;;;;;;;;;;;21.30;41.00;;;;;;701861;28;1370;-80
2022/02/02 01:50:34;;;;;;;;;;;21.30;41.00;;;;;;700441;28;1466;-80
2022/02/02 01:51:07;;;;;;;;;;;21.30;41.10;;;;;;700553;28;1733;-79
2022/02/02 01:54:41;;;;;;;;;;;21.30;50.30;;;;;;702445;28;1666;-79
2022/02/02 01:55:05;;;;;;;;;;;21.30;51.00;;;;;;702111;28;1558;-78
2022/02/02 01:55:37;;;;;;;;;;;21.40;57.30;;;;;;699067;28;1582;-77
2022/02/02 01:55:59;;;;;;;;;;;21.40;59.20;;;;;;698527;28;1761;-78
2022/02/02 01:56:20;;;;;;;;;;;21.40;62.50;;;;;;699345;28;1766;-77
2022/02/02 01:56:41;;;;;;;;;;;21.40;65.30;;;;;;699142;28;1797;-77
2022/02/02 01:57:12;;;;;;;;;;;21.50;67.00;;;;;;700950;28;1669;-78
2022/02/02 01:59:02;;;;;;;;;;;21.60;70.10;;;;;;700120;28;1706;-77
2022/02/02 01:59:39;;;;;;;;;;;21.60;68.90;;;;;;696772;28;1706;-78
2022/02/02 01:59:59;;;;;;;;;;;21.60;70.20;;;;;;697022;28;1629;-76
2022/02/02 02:00:20;;;;;;;;;;;21.60;73.20;;;;;;697293;28;1767;-76
2022/02/02 02:00:40;;;;;;;;;;;21.60;75.00;;;;;;697225;28;1711;-79
2022/02/02 02:01:01;;;;;;;;;;;21.60;77.00;;;;;;697639;28;1711;-77
2022/02/02 02:01:22;;;;;;;;;;;21.60;76.90;;;;;;697296;28;1628;-79
2022/02/02 02:01:42;;;;;;;;;;;21.70;77.00;;;;;;697327;28;1659;-78
2022/02/02 02:02:03;;;;;;;;;;;21.70;76.60;;;;;;697169;28;1814;-77
2022/02/02 02:02:24;;;;;;;;;;;21.70;76.60;;;;;;697477;28;1869;-76
2022/02/02 02:02:44;;;;;;;;;;;21.70;76.20;;;;;;694528;28;1798;-77
2022/02/02 02:03:05;;;;;;;;;;;21.70;76.10;;;;;;694869;28;1774;-77
2022/02/02 02:03:25;;;;;;;;;;;21.80;75.80;;;;;;696062;28;1767;-79
2022/02/02 02:03:46;;;;;;;;;;;21.80;75.90;;;;;;695814;28;1783;-78
2022/02/02 02:04:06;;;;;;;;;;;21.80;75.80;;;;;;696505;28;1719;-77
2022/02/02 02:04:27;;;;;;;;;;;21.80;75.70;;;;;;695845;28;1865;-78
2022/02/02 02:04:48;;;;;;;;;;;21.80;75.20;;;;;;699611;28;1680;-79
2022/02/02 02:05:08;;;;;;;;;;;21.80;75.40;;;;;;697299;28;1838;-79
2022/02/02 02:05:29;;;;;;;;;;;21.80;75.80;;;;;;697390;28;1570;-78
2022/02/02 02:05:49;;;;;;;;;;;21.80;75.20;;;;;;697602;28;1573;-78
2022/02/02 02:06:10;;;;;;;;;;;21.80;75.70;;;;;;696136;28;1516;-78
2022/02/02 02:06:31;;;;;;;;;;;21.80;76.10;;;;;;694634;28;1585;-78
2022/02/02 02:06:51;;;;;;;;;;;21.90;76.40;;;;;;695138;28;1629;-79
2022/02/02 02:07:12;;;;;;;;;;;21.90;76.20;;;;;;696790;28;1644;-79
2022/02/02 02:07:32;;;;;;;;;;;21.90;76.40;;;;;;697156;28;1748;-78
2022/02/02 02:07:53;;;;;;;;;;;21.90;76.10;;;;;;697988;28;1771;-78
2022/02/02 02:08:14;;;;;;;;;;;21.90;76.00;;;;;;696730;28;1570;-79
2022/02/02 02:08:36;;;;;;;;;;;21.90;75.90;;;;;;698104;28;1819;-80
2022/02/02 02:08:57;;;;;;;;;;;21.90;75.70;;;;;;697311;28;1599;-80
2022/02/02 02:09:18;;;;;;;;;;;21.90;76.60;;;;;;697173;28;1799;-79
2022/02/02 02:09:39;;;;;;;;;;;22.00;77.00;;;;;;697284;28;1596;-78
2022/02/02 02:10:00;;;;;;;;;;;21.90;76.80;;;;;;697675;28;1636;-77
2022/02/02 02:10:22;;;;;;;;;;;21.90;76.30;;;;;;700985;28;1834;-78
2022/02/02 02:10:43;;;;;;;;;;;22.00;77.30;;;;;;697769;28;1644;-80
2022/02/02 02:11:06;;;;;;;;;;;22.00;77.90;;;;;;697028;28;1818;-80
2022/02/02 02:11:26;;;;;;;;;;;22.00;77.50;;;;;;693149;28;1764;-82
2022/02/02 02:12:00;;;;;;;;;;;21.90;77.90;;;;;;692940;28;1929;-80
2022/02/02 02:12:21;;;;;;;;;;;22.00;77.70;;;;;;693219;28;1827;-80
2022/02/02 02:12:56;;;;;;;;;;;22.00;76.40;;;;;;693775;28;1589;-79
2022/02/02 02:13:41;;;;;;;;;;;22.00;76.80;;;;;;695871;28;1667;-80
2022/02/02 02:15:11;;;;;;;;;;;22.00;75.80;;;;;;698792;28;1690;-79
2022/02/02 02:15:32;;;;;;;;;;;22.00;75.40;;;;;;696503;28;1542;-78
2022/02/02 02:15:53;;;;;;;;;;;22.00;75.30;;;;;;697307;28;1747;-79
2022/02/02 02:16:13;;;;;;;;;;;22.00;75.00;;;;;;696040;28;1751;-78
2022/02/02 02:16:34;;;;;;;;;;;22.00;74.10;;;;;;693100;28;1661;-77
2022/02/02 02:16:54;;;;;;;;;;;22.00;73.40;;;;;;692189;28;1635;-77
2022/02/02 02:17:15;;;;;;;;;;;22.00;74.00;;;;;;692238;28;1673;-76
2022/02/02 02:17:35;;;;;;;;;;;22.00;72.80;;;;;;695724;28;1680;-77
2022/02/02 02:17:58;;;;;;;;;;;22.00;73.80;;;;;;695783;28;1736;-78
2022/02/02 02:18:18;;;;;;;;;;;22.00;73.50;;;;;;695531;28;1721;-78
2022/02/02 02:18:39;;;;;;;;;;;22.00;72.90;;;;;;698480;28;1648;-77
2022/02/02 02:19:00;;;;;;;;;;;22.00;72.80;;;;;;698064;28;1636;-78
2022/02/02 02:19:23;;;;;;;;;;;22.00;74.50;;;;;;694886;28;1661;-77
2022/02/02 02:19:48;;;;;;;;;;;22.00;73.70;;;;;;693039;28;1657;-81
2022/02/02 02:20:10;;;;;;;;;;;22.00;73.70;;;;;;694567;28;1641;-79
2022/02/02 02:20:31;;;;;;;;;;;22.00;73.50;;;;;;694530;28;1617;-78
2022/02/02 02:20:52;;;;;;;;;;;22.00;74.00;;;;;;695317;28;1619;-79
2022/02/02 02:21:15;;;;;;;;;;;22.00;73.90;;;;;;694323;28;1612;-78
2022/02/02 02:21:36;;;;;;;;;;;22.00;73.80;;;;;;693140;28;1680;-77
2022/02/02 02:21:56;;;;;;;;;;;22.00;73.70;;;;;;693122;28;1796;-78
2022/02/02 02:22:19;;;;;;;;;;;22.00;73.20;;;;;;696172;28;1743;-78
2022/02/02 02:22:42;;;;;;;;;;;22.00;73.60;;;;;;698536;28;1704;-78
2022/02/02 02:23:03;;;;;;;;;;;22.00;74.10;;;;;;697391;28;1805;-78
2022/02/02 02:23:24;;;;;;;;;;;22.00;74.90;;;;;;696550;28;1810;-80
2022/02/02 02:23:47;;;;;;;;;;;22.00;73.80;;;;;;698528;28;1775;-79
2022/02/02 02:24:07;;;;;;;;;;;22.00;73.50;;;;;;695562;28;1661;-77
2022/02/02 02:24:28;;;;;;;;;;;22.00;73.00;;;;;;694262;28;1748;-77
2022/02/02 02:24:49;;;;;;;;;;;22.00;73.30;;;;;;695202;28;1838;-77
2022/02/02 02:25:17;;;;;;;;;;;22.00;74.50;;;;;;694764;28;1613;-79
2022/02/02 02:25:39;;;;;;;;;;;22.00;74.60;;;;;;695528;28;1685;-77
2022/02/02 02:26:00;;;;;;;;;;;22.00;74.70;;;;;;695426;28;1514;-77
2022/02/02 02:26:26;;;;;;;;;;;22.00;75.10;;;;;;695648;28;1783;-79
2022/02/02 02:26:47;;;;;;;;;;;22.00;73.90;;;;;;693470;28;1624;-79
2022/02/02 02:27:11;;;;;;;;;;;22.00;75.00;;;;;;692927;28;1585;-79
2022/02/02 02:27:32;;;;;;;;;;;22.00;76.30;;;;;;694745;28;1618;-79
2022/02/02 02:27:54;;;;;;;;;;;22.00;77.40;;;;;;692867;28;1626;-79
2022/02/02 02:28:54;;;;;;;;;;;22.10;81.40;;;;;;694990;28;1644;-79
2022/02/02 02:29:52;;;;;;;;;;;22.00;82.30;;;;;;692993;28;1661;-80
2022/02/02 02:31:15;;;;;;;;;;;22.10;79.40;;;;;;690469;28;1709;-80
2022/02/02 02:32:29;;;;;;;;;;;22.00;76.60;;;;;;690497;28;1732;-79
2022/02/02 02:33:14;;;;;;;;;;;22.00;76.20;;;;;;690253;28;1729;-80
2022/02/02 02:34:41;;;;;;;;;;;22.00;73.40;;;;;;687457;28;1655;-81
2022/02/02 02:56:00;;;;;;;;;;;21.50;64.20;;;;;;691070;28;605;-77
2022/02/02 02:56:21;;;;;;;;;;;21.50;63.80;;;;;;690864;28;996;-78
2022/02/02 02:56:45;;;;;;;;;;;21.50;63.90;;;;;;691072;28;860;-77
2022/02/02 02:57:09;;;;;;;;;;;21.50;64.10;;;;;;688506;28;1226;-78
2022/02/02 02:57:43;;;;;;;;;;;21.40;63.20;;;;;;688278;28;814;-78
2022/02/02 02:59:05;;;;;;;;;;;21.50;63.30;;;;;;689981;28;1507;-78
2022/02/02 02:59:38;;;;;;;;;;;21.40;63.30;;;;;;690810;28;1518;-76
2022/02/02 03:00:23;;;;;;;;;;;21.40;62.90;;;;;;692825;28;933;-78
2022/02/02 03:30:51;;;;;;;;;;;21.20;58.30;;;;;;705109;28;1369;-79
2022/02/02 03:32:02;;;;;;;;;;;21.20;57.10;;;;;;705048;28;1957;-80
2022/02/02 03:34:48;;;;;;;;;;;21.10;55.80;;;;;;705030;28;706;-80
2022/02/02 03:50:33;;;;;;;;;;;21.10;55.20;;;;;;699490;28;873;-79
2022/02/02 03:55:17;;;;;;;;;;;21.10;53.70;;;;;;688151;28;1242;-79
2022/02/02 03:57:27;;;;;;;;;;;21.10;53.90;;;;;;688891;28;1702;-78
2022/02/02 03:58:46;;;;;;;;;;;21.10;53.60;;;;;;688588;28;649;-78
2022/02/02 04:00:33;;;;;;;;;;;21.10;53.70;;;;;;683232;29;1157;-79
2022/02/02 04:01:46;;;;;;;;;;;21.10;53.60;;;;;;684331;28;947;-79
2022/02/02 04:03:47;;;;;;;;;;;21.10;53.40;;;;;;680762;29;1205;-80
2022/02/02 04:05:35;;;;;;;;;;;21.10;52.50;;;;;;688684;28;700;-80
2022/02/02 04:06:04;;;;;;;;;;;21.10;52.90;;;;;;688731;28;898;-79
2022/02/02 04:06:26;;;;;;;;;;;21.10;53.20;;;;;;685805;28;1102;-81
2022/02/02 04:07:03;;;;;;;;;;;21.10;53.10;;;;;;685830;28;1368;-80
2022/02/02 04:07:32;;;;;;;;;;;21.10;53.10;;;;;;688527;28;1224;-83
2022/02/02 04:08:05;;;;;;;;;;;21.10;53.40;;;;;;688522;28;1220;-78
2022/02/02 04:08:28;;;;;;;;;;;21.10;53.30;;;;;;691133;28;510;-80
2022/02/02 04:08:49;;;;;;;;;;;21.10;54.50;;;;;;688429;28;1411;-80
2022/02/02 04:09:09;;;;;;;;;;;21.10;53.40;;;;;;688729;28;1353;-79
2022/02/02 04:09:35;;;;;;;;;;;21.10;53.50;;;;;;688607;28;1300;-78
2022/02/02 04:09:55;;;;;;;;;;;21.10;53.40;;;;;;685884;28;1024;-79
2022/02/02 04:10:16;;;;;;;;;;;21.10;53.60;;;;;;685872;28;1425;-80
2022/02/02 04:10:37;;;;;;;;;;;21.10;53.50;;;;;;687107;28;850;-80
2022/02/02 04:11:00;;;;;;;;;;;21.10;53.60;;;;;;688588;28;1592;-80
2022/02/02 04:11:41;;;;;;;;;;;21.10;53.40;;;;;;689644;28;1236;-80
2022/02/02 04:13:08;;;;;;;;;;;21.10;53.20;;;;;;688687;28;738;-81
2022/02/02 04:37:25;;;;;;;;;;;21.20;52.70;;;;;;688642;28;834;-78
2022/02/02 04:39:17;;;;;;;;;;;21.30;51.20;;;;;;699516;28;1324;-84
2022/02/02 04:54:49;;;;;;;;;;;21.10;51.70;;;;;;691439;28;688;-81
2022/02/02 04:55:26;;;;;;;;;;;21.10;50.80;;;;;;691323;28;905;-82
2022/02/02 04:57:10;;;;;;;;;;;21.10;50.40;;;;;;691372;28;708;-82
2022/02/02 04:58:09;;;;;;;;;;;21.10;50.30;;;;;;691253;28;1002;-82
2022/02/02 05:00:56;;;;;;;;;;;21.10;50.40;;;;;;691292;28;751;-81
2022/02/02 05:04:27;;;;;;;;;;;21.10;50.10;;;;;;691280;28;695;-82
2022/02/02 05:05:46;;;;;;;;;;;21.10;50.00;;;;;;691305;28;605;-81
2022/02/02 05:06:24;;;;;;;;;;;21.10;50.00;;;;;;691314;28;858;-81
2022/02/02 05:06:51;;;;;;;;;;;21.10;50.10;;;;;;691088;28;1275;-82
2022/02/02 05:07:25;;;;;;;;;;;21.10;49.90;;;;;;688483;28;1335;-81
2022/02/02 05:11:13;;;;;;;;;;;21.10;49.60;;;;;;691347;28;790;-81
2022/02/02 05:17:37;;;;;;;;;;;21.10;49.40;;;;;;691255;28;882;-81
2022/02/02 05:18:14;;;;;;;;;;;21.10;49.50;;;;;;688458;28;811;-81
2022/02/02 05:19:42;;;;;;;;;;;21.10;49.50;;;;;;696598;28;589;-82
2022/02/02 05:22:22;;;;;;;;;;;21.10;49.40;;;;;;696644;28;600;-81
2022/02/02 05:43:07;;;;;;;;;;;21.10;49.50;;;;;;683059;29;1168;-83
2022/02/02 05:48:47;;;;;;;;;;;21.10;49.50;;;;;;680395;29;614;-83
2022/02/02 05:51:55;;;;;;;;;;;21.10;49.70;;;;;;677759;29;1907;-81
2022/02/02 05:52:16;;;;;;;;;;;21.10;49.50;;;;;;677824;29;784;-79
2022/02/02 05:52:37;;;;;;;;;;;21.10;49.60;;;;;;677947;29;784;-81
2022/02/02 05:52:59;;;;;;;;;;;21.10;49.60;;;;;;677809;29;800;-81
2022/02/02 05:53:21;;;;;;;;;;;21.10;49.50;;;;;;675223;29;1400;-81
2022/02/02 05:53:41;;;;;;;;;;;21.10;49.50;;;;;;675294;29;1389;-80
2022/02/02 05:54:06;;;;;;;;;;;21.10;49.60;;;;;;675219;29;1056;-81
2022/02/02 05:54:26;;;;;;;;;;;21.10;49.60;;;;;;675207;29;898;-80
2022/02/02 05:54:47;;;;;;;;;;;21.10;49.60;;;;;;675255;29;895;-80
2022/02/02 05:55:08;;;;;;;;;;;21.10;49.70;;;;;;676053;29;936;-82
2022/02/02 05:55:33;;;;;;;;;;;21.10;50.00;;;;;;677786;29;927;-82
2022/02/02 05:55:54;;;;;;;;;;;21.10;49.80;;;;;;677825;29;956;-80
2022/02/02 05:56:15;;;;;;;;;;;21.20;50.50;;;;;;677721;29;792;-81
2022/02/02 05:56:40;;;;;;;;;;;21.10;50.50;;;;;;677896;29;954;-79